createdAt,value
2022-08-30T00:01:06.690Z,24.70
2022-08-30T00:03:36.715Z,24.70
2022-08-30T00:06:06.427Z,24.90
2022-08-30T00:08:34.687Z,24.90
2022-08-30T00:11:02.812Z,24.90
2022-08-30T00:13:30.955Z,24.90
2022-08-30T00:16:00.366Z,24.80
2022-08-30T00:18:28.469Z,24.70
2022-08-30T00:20:57.073Z,24.70
2022-08-30T00:23:25.847Z,24.70
2022-08-30T00:25:53.762Z,24.70
2022-08-30T00:28:21.704Z,24.60
2022-08-30T00:30:49.725Z,24.60
2022-08-30T00:33:19.059Z,24.60
2022-08-30T00:35:47.007Z,24.60
2022-08-30T00:38:15.338Z,24.60
2022-08-30T00:40:44.511Z,24.60
2022-08-30T00:43:15.177Z,24.70
2022-08-30T00:45:43.821Z,24.90
2022-08-30T00:48:11.826Z,24.90
2022-08-30T00:50:43.164Z,24.90
2022-08-30T00:53:13.578Z,24.80
2022-08-30T00:55:42.039Z,24.80
2022-08-30T00:58:14.170Z,24.80
2022-08-30T01:00:42.145Z,24.70
2022-08-30T01:03:10.118Z,24.70
2022-08-30T01:05:40.366Z,24.60
2022-08-30T01:08:08.370Z,24.70
2022-08-30T01:10:36.611Z,24.70
2022-08-30T01:13:04.571Z,24.90
2022-08-30T01:15:33.004Z,24.90
2022-08-30T01:18:02.099Z,24.90
2022-08-30T01:20:33.078Z,24.90
2022-08-30T01:23:12.374Z,24.80
2022-08-30T01:25:42.346Z,24.80
2022-08-30T01:28:12.235Z,24.70
2022-08-30T01:30:40.369Z,24.70
2022-08-30T01:33:08.892Z,24.70
2022-08-30T01:35:40.325Z,24.60
2022-08-30T01:38:10.978Z,24.60
2022-08-30T01:40:39.078Z,24.60
2022-08-30T01:43:07.152Z,24.60
2022-08-30T01:45:35.064Z,24.50
2022-08-30T01:48:05.514Z,24.60
2022-08-30T01:50:34.688Z,24.60
2022-08-30T01:53:05.504Z,24.60
2022-08-30T01:55:38.868Z,24.50
2022-08-30T01:58:06.882Z,24.50
2022-08-30T02:00:34.802Z,24.60
2022-08-30T02:03:02.842Z,24.70
2022-08-30T02:05:31.175Z,24.90
2022-08-30T02:08:01.713Z,25.00
2022-08-30T02:10:30.282Z,25.00
2022-08-30T02:13:00.287Z,25.00
2022-08-30T02:15:28.275Z,24.90
2022-08-30T02:17:56.236Z,24.80
2022-08-30T02:20:24.591Z,24.80
2022-08-30T02:22:52.559Z,24.70
2022-08-30T02:25:21.327Z,24.70
2022-08-30T02:27:49.542Z,24.70
2022-08-30T02:30:18.888Z,24.70
2022-08-30T02:32:46.815Z,24.60
2022-08-30T02:35:14.831Z,24.60
2022-08-30T02:37:42.843Z,24.60
2022-08-30T02:40:12.109Z,24.70
2022-08-30T02:42:41.637Z,24.80
2022-08-30T02:45:10.526Z,24.90
2022-08-30T02:47:43.627Z,24.90
2022-08-30T02:50:14.596Z,24.80
2022-08-30T02:52:42.640Z,24.80
2022-08-30T02:55:13.217Z,24.70
2022-08-30T02:57:41.269Z,24.70
2022-08-30T03:00:10.903Z,24.70
2022-08-30T03:02:40.383Z,24.60
2022-08-30T03:05:08.519Z,24.60
2022-08-30T03:07:36.442Z,24.60
2022-08-30T03:10:04.586Z,24.70
2022-08-30T03:12:33.362Z,24.80
2022-08-30T03:15:02.724Z,24.90
2022-08-30T03:17:31.112Z,24.90
2022-08-30T03:20:02.184Z,24.80
2022-08-30T03:22:30.294Z,24.80
2022-08-30T03:25:01.323Z,24.70
2022-08-30T03:27:29.628Z,24.70
2022-08-30T03:29:57.846Z,24.70
2022-08-30T03:32:25.825Z,24.60
2022-08-30T03:34:53.838Z,24.60
2022-08-30T03:37:27.292Z,24.60
2022-08-30T03:39:55.533Z,24.50
2022-08-30T03:42:24.193Z,24.50
2022-08-30T03:44:52.963Z,24.50
2022-08-30T03:47:21.304Z,24.50
2022-08-30T03:49:49.304Z,24.70
2022-08-30T03:52:17.293Z,24.80
2022-08-30T03:54:47.910Z,24.90
2022-08-30T03:57:20.091Z,24.90
2022-08-30T03:59:52.262Z,24.80
2022-08-30T04:02:20.486Z,24.80
2022-08-30T04:04:48.646Z,24.80
2022-08-30T04:07:16.643Z,24.70
2022-08-30T04:09:44.581Z,24.70
2022-08-30T04:12:13.900Z,24.60
2022-08-30T04:14:46.304Z,24.60
2022-08-30T04:17:14.285Z,24.60
2022-08-30T04:19:42.284Z,24.50
2022-08-30T04:22:10.212Z,24.50
2022-08-30T04:24:38.397Z,24.50
2022-08-30T04:27:06.676Z,24.50
2022-08-30T04:29:36.000Z,24.60
2022-08-30T04:32:04.326Z,24.80
2022-08-30T04:34:32.427Z,24.80
2022-08-30T04:37:00.403Z,24.80
2022-08-30T04:39:28.454Z,24.80
2022-08-30T04:41:57.210Z,24.70
2022-08-30T04:44:27.309Z,24.70
2022-08-30T04:46:56.612Z,24.70
2022-08-30T04:49:24.641Z,24.60
2022-08-30T04:51:52.606Z,24.60
2022-08-30T04:54:20.627Z,24.50
2022-08-30T04:56:48.563Z,24.50
2022-08-30T04:59:16.801Z,24.50
2022-08-30T05:01:46.132Z,24.50
2022-08-30T05:04:15.777Z,24.50
2022-08-30T05:06:43.934Z,24.50
2022-08-30T05:09:11.989Z,24.60
2022-08-30T05:11:39.988Z,24.70
2022-08-30T05:14:07.975Z,24.80
2022-08-30T05:16:36.028Z,24.90
2022-08-30T05:19:04.009Z,24.80
2022-08-30T05:21:33.318Z,24.80
2022-08-30T05:24:01.955Z,24.70
2022-08-30T05:26:31.375Z,24.70
2022-08-30T05:28:59.370Z,24.70
2022-08-30T05:31:28.137Z,24.60
2022-08-30T05:33:56.333Z,24.60
2022-08-30T05:36:25.426Z,24.50
2022-08-30T05:38:54.840Z,24.50
2022-08-30T05:41:23.109Z,24.50
2022-08-30T05:43:54.597Z,24.50
2022-08-30T05:46:22.663Z,24.50
2022-08-30T05:48:50.834Z,24.60
2022-08-30T05:51:19.804Z,24.70
2022-08-30T05:53:47.857Z,24.80
2022-08-30T05:56:19.584Z,24.80
2022-08-30T05:58:47.641Z,24.80
2022-08-30T06:01:21.873Z,24.70
2022-08-30T06:03:49.944Z,24.70
2022-08-30T06:06:17.928Z,24.60
2022-08-30T06:08:47.360Z,24.60
2022-08-30T06:11:16.987Z,24.60
2022-08-30T06:13:44.938Z,24.50
2022-08-30T06:16:13.209Z,24.50
2022-08-30T06:18:41.311Z,24.50
2022-08-30T06:21:13.329Z,24.50
2022-08-30T06:23:42.992Z,24.40
2022-08-30T06:26:10.962Z,24.50
2022-08-30T06:28:40.263Z,24.60
2022-08-30T06:31:08.548Z,24.70
2022-08-30T06:33:36.673Z,24.80
2022-08-30T06:36:05.938Z,24.90
2022-08-30T06:38:34.126Z,24.80
2022-08-30T06:41:05.685Z,24.80
2022-08-30T06:43:33.632Z,24.70
2022-08-30T06:46:04.508Z,24.70
2022-08-30T06:48:32.595Z,24.70
2022-08-30T06:51:00.575Z,24.60
2022-08-30T06:53:29.596Z,24.60
2022-08-30T06:55:59.255Z,24.50
2022-08-30T06:58:27.426Z,24.50
2022-08-30T07:00:55.385Z,24.50
2022-08-30T07:03:25.291Z,24.50
2022-08-30T07:05:53.271Z,24.50
2022-08-30T07:08:22.957Z,24.50
2022-08-30T07:10:51.000Z,24.50
2022-08-30T07:13:19.810Z,24.40
2022-08-30T07:15:47.860Z,24.40
2022-08-30T07:18:33.064Z,24.50
2022-08-30T07:21:07.602Z,24.70
2022-08-30T07:23:35.744Z,24.80
2022-08-30T07:26:05.185Z,24.80
2022-08-30T07:28:33.411Z,24.80
2022-08-30T07:31:02.096Z,24.70
2022-08-30T07:33:30.159Z,24.70
2022-08-30T07:35:58.832Z,24.70
2022-08-30T07:38:30.721Z,24.60
2022-08-30T07:40:59.114Z,24.60
2022-08-30T07:43:27.130Z,24.50
2022-08-30T07:45:55.892Z,24.50
2022-08-30T07:48:24.063Z,24.50
2022-08-30T07:50:56.392Z,24.50
2022-08-30T07:53:26.330Z,24.40
2022-08-30T07:55:55.835Z,24.50
2022-08-30T07:58:23.802Z,24.50
2022-08-30T08:00:52.305Z,24.70
2022-08-30T08:03:20.344Z,24.70
2022-08-30T08:05:48.406Z,24.80
2022-08-30T08:08:16.497Z,24.80
2022-08-30T08:10:44.606Z,24.70
2022-08-30T08:13:13.920Z,24.60
2022-08-30T08:15:44.587Z,24.60
2022-08-30T08:18:12.606Z,24.60
2022-08-30T08:20:40.569Z,24.50
2022-08-30T08:23:08.782Z,24.50
2022-08-30T08:25:39.893Z,24.50
2022-08-30T08:28:07.848Z,24.50
2022-08-30T08:30:37.857Z,24.40
2022-08-30T08:33:06.161Z,24.40
2022-08-30T08:35:34.317Z,24.40
2022-08-30T08:38:02.370Z,24.40
2022-08-30T08:40:30.371Z,24.40
2022-08-30T08:43:02.446Z,24.40
2022-08-30T08:45:43.168Z,24.40
2022-08-30T08:48:13.141Z,24.50
2022-08-30T08:51:02.741Z,24.60
2022-08-30T08:53:45.977Z,24.70
2022-08-30T08:56:16.470Z,24.80
2022-08-30T08:58:45.677Z,24.80
2022-08-30T09:01:16.330Z,24.70
2022-08-30T09:03:44.402Z,24.70
2022-08-30T09:06:29.493Z,24.60
2022-08-30T09:08:57.718Z,24.60
2022-08-30T09:11:28.827Z,24.50
2022-08-30T09:13:56.928Z,24.50
2022-08-30T09:16:48.062Z,24.50
2022-08-30T09:19:29.333Z,24.50
2022-08-30T09:22:03.378Z,24.40
2022-08-30T09:24:38.774Z,24.40
2022-08-30T09:27:24.078Z,24.50
2022-08-30T09:29:57.286Z,24.60
2022-08-30T09:32:36.244Z,24.70
2022-08-30T09:35:06.278Z,24.70
2022-08-30T09:37:39.446Z,24.70
2022-08-30T09:40:14.247Z,24.60
2022-08-30T09:42:42.555Z,24.60
2022-08-30T09:45:21.306Z,24.50
2022-08-30T09:47:50.616Z,24.50
2022-08-30T09:50:21.035Z,24.50
2022-08-30T09:52:58.742Z,24.40
2022-08-30T09:55:37.776Z,24.50
2022-08-30T09:58:10.719Z,24.60
2022-08-30T10:00:43.738Z,24.70
2022-08-30T10:03:40.384Z,24.70
2022-08-30T10:06:13.432Z,24.60
2022-08-30T10:08:51.058Z,24.50
2022-08-30T10:11:22.202Z,24.50
2022-08-30T10:14:13.002Z,24.50
2022-08-30T10:16:46.244Z,24.50
2022-08-30T10:19:23.876Z,24.40
2022-08-30T10:21:55.059Z,24.40
2022-08-30T10:24:25.820Z,24.40
2022-08-30T10:26:56.957Z,24.40
2022-08-30T10:29:26.325Z,24.40
2022-08-30T10:31:56.833Z,24.40
2022-08-30T10:34:27.633Z,24.40
2022-08-30T10:36:57.597Z,24.60
2022-08-30T10:39:26.637Z,24.70
2022-08-30T10:42:01.387Z,24.70
2022-08-30T10:44:30.759Z,24.70
2022-08-30T10:47:03.489Z,24.60
2022-08-30T10:49:35.642Z,24.60
2022-08-30T10:52:11.154Z,24.60
2022-08-30T10:54:42.858Z,24.50
2022-08-30T10:57:11.015Z,24.50
2022-08-30T10:59:39.990Z,24.50
2022-08-30T11:02:23.765Z,24.50
2022-08-30T11:05:04.534Z,24.40
2022-08-30T11:07:38.494Z,24.40
2022-08-30T11:10:28.088Z,24.40
2022-08-30T11:13:00.692Z,24.40
2022-08-30T11:15:31.430Z,24.50
2022-08-30T11:18:01.278Z,24.60
2022-08-30T11:20:37.267Z,24.70
2022-08-30T11:23:24.017Z,24.70
2022-08-30T11:25:57.856Z,24.60
2022-08-30T11:29:00.954Z,24.60
2022-08-30T11:31:35.058Z,24.50
2022-08-30T11:34:03.296Z,24.50
2022-08-30T11:37:09.518Z,24.50
2022-08-30T11:39:55.216Z,24.40
2022-08-30T11:42:29.536Z,24.50
2022-08-30T11:45:36.009Z,24.40
2022-08-30T11:48:05.502Z,24.40
2022-08-30T11:50:35.651Z,24.40
2022-08-30T11:53:06.553Z,24.40
2022-08-30T11:55:59.717Z,24.50
2022-08-30T11:58:33.854Z,24.70
2022-08-30T12:01:50.623Z,24.70
2022-08-30T12:04:28.194Z,24.70
2022-08-30T12:06:56.997Z,24.70
2022-08-30T12:10:02.011Z,24.60
2022-08-30T12:12:53.505Z,24.60
2022-08-30T12:15:57.651Z,24.50
2022-08-30T12:18:30.316Z,24.50
2022-08-30T12:21:02.468Z,24.50
2022-08-30T12:23:44.572Z,24.50
2022-08-30T12:26:30.169Z,24.40
2022-08-30T12:29:14.322Z,24.40
2022-08-30T12:31:44.121Z,24.40
2022-08-30T12:34:25.381Z,24.50
2022-08-30T12:36:58.346Z,24.60
2022-08-30T12:39:28.879Z,24.70
2022-08-30T12:41:56.921Z,24.70
2022-08-30T12:44:27.944Z,24.60
2022-08-30T12:46:59.751Z,24.60
2022-08-30T12:49:29.222Z,24.50
2022-08-30T12:51:57.466Z,24.50
2022-08-30T12:54:28.911Z,24.50
2022-08-30T12:57:19.253Z,24.40
2022-08-30T12:59:58.106Z,24.40
2022-08-30T13:02:28.380Z,24.40
2022-08-30T13:04:56.892Z,24.40
2022-08-30T13:07:33.302Z,24.40
2022-08-30T13:10:15.081Z,24.40
2022-08-30T13:13:01.789Z,24.50
2022-08-30T13:15:33.178Z,24.60
2022-08-30T13:18:21.695Z,24.70
2022-08-30T13:21:10.468Z,24.70
2022-08-30T13:23:38.526Z,24.70
2022-08-30T13:26:07.945Z,24.60
2022-08-30T13:28:45.000Z,24.60
2022-08-30T13:31:18.273Z,24.50
2022-08-30T13:33:46.741Z,24.50
2022-08-30T13:36:14.802Z,24.50
2022-08-30T13:38:43.181Z,24.50
2022-08-30T13:41:11.196Z,24.40
2022-08-30T13:46:28.745Z,24.40
2022-08-30T13:48:59.615Z,24.40
2022-08-30T13:51:29.742Z,24.50
2022-08-30T13:53:58.820Z,24.60
2022-08-30T13:56:27.753Z,24.70
2022-08-30T13:58:59.412Z,24.80
2022-08-30T14:01:29.267Z,24.70
2022-08-30T14:04:13.557Z,24.70
2022-08-30T14:09:31.423Z,24.60
2022-08-30T14:11:59.385Z,24.50
2022-08-30T14:14:42.755Z,24.50
2022-08-30T14:17:12.803Z,24.40
2022-08-30T14:19:40.886Z,24.40
2022-08-30T14:22:08.864Z,24.40
2022-08-30T14:24:36.887Z,24.40
2022-08-30T14:27:04.875Z,24.40
2022-08-30T14:29:32.807Z,24.30
2022-08-30T14:32:00.887Z,24.30
2022-08-30T14:34:30.991Z,24.40
2022-08-30T14:37:00.817Z,24.40
2022-08-30T14:39:28.762Z,24.60
2022-08-30T14:41:56.793Z,24.80
2022-08-30T14:44:25.004Z,25.00
2022-08-30T14:46:53.139Z,25.30
2022-08-30T14:49:21.448Z,25.50
2022-08-30T14:51:50.987Z,25.70
2022-08-30T14:54:20.600Z,25.90
2022-08-30T14:56:48.615Z,26.00
2022-08-30T14:59:18.219Z,26.10
2022-08-30T15:01:46.287Z,26.20
2022-08-30T15:04:14.943Z,26.30
2022-08-30T15:06:44.234Z,26.20
2022-08-30T15:09:15.183Z,26.10
2022-08-30T15:11:44.496Z,25.90
2022-08-30T15:14:16.225Z,25.60
2022-08-30T15:16:44.703Z,25.50
2022-08-30T15:19:12.818Z,25.40
2022-08-30T15:21:41.996Z,25.20
2022-08-30T15:24:11.740Z,25.10
2022-08-30T15:26:43.607Z,25.10
2022-08-30T15:29:12.119Z,25.00
2022-08-30T15:31:40.465Z,24.90
2022-08-30T15:34:09.150Z,24.80
2022-08-30T15:36:38.902Z,24.80
2022-08-30T15:39:06.983Z,24.90
2022-08-30T15:41:36.010Z,25.00
2022-08-30T15:44:07.136Z,25.10
2022-08-30T15:46:35.989Z,25.10
2022-08-30T15:49:06.156Z,25.10
2022-08-30T15:51:41.488Z,25.00
2022-08-30T15:54:10.336Z,25.00
2022-08-30T15:56:40.013Z,24.90
2022-08-30T15:59:11.289Z,24.90
2022-08-30T16:01:39.365Z,24.80
2022-08-30T16:04:07.425Z,24.80
2022-08-30T16:06:37.290Z,24.70
2022-08-30T16:09:05.553Z,24.70
2022-08-30T16:11:34.670Z,24.70
2022-08-30T16:14:02.805Z,24.70
2022-08-30T16:16:32.674Z,24.70
2022-08-30T16:19:00.792Z,24.80
2022-08-30T16:21:29.545Z,24.90
2022-08-30T16:23:58.374Z,25.00
2022-08-30T16:26:26.415Z,25.00
2022-08-30T16:28:54.480Z,25.00
2022-08-30T16:31:26.093Z,24.90
2022-08-30T16:34:02.192Z,24.90
2022-08-30T16:36:30.867Z,24.80
2022-08-30T16:38:58.901Z,24.80
2022-08-30T16:41:27.495Z,24.70
2022-08-30T16:43:55.474Z,24.80
2022-08-30T16:46:24.314Z,24.80
2022-08-30T16:48:57.077Z,24.90
2022-08-30T16:51:26.239Z,25.00
2022-08-30T16:53:55.645Z,25.00
2022-08-30T16:56:25.144Z,25.00
2022-08-30T16:59:00.802Z,24.90
2022-08-30T17:01:32.012Z,24.80
2022-08-30T17:04:01.525Z,24.80
2022-08-30T17:06:29.534Z,24.80
2022-08-30T17:08:57.551Z,24.70
2022-08-30T17:11:27.562Z,24.70
2022-08-30T17:13:55.589Z,24.70
2022-08-30T17:16:27.479Z,24.70
2022-08-30T17:18:56.794Z,24.70
2022-08-30T17:21:30.057Z,24.60
2022-08-30T17:24:01.376Z,24.70
2022-08-30T17:26:31.041Z,24.80
2022-08-30T17:28:59.498Z,24.90
2022-08-30T17:31:30.389Z,25.00
2022-08-30T17:34:02.875Z,25.00
2022-08-30T17:36:32.577Z,24.90
2022-08-30T17:39:07.554Z,24.80
2022-08-30T17:41:39.848Z,24.80
2022-08-30T17:44:11.518Z,24.80
2022-08-30T17:46:39.663Z,24.70
2022-08-30T17:49:10.571Z,24.70
2022-08-30T17:51:42.659Z,24.70
2022-08-30T17:54:11.970Z,24.70
2022-08-30T17:56:40.065Z,24.70
2022-08-30T17:59:09.210Z,24.70
2022-08-30T18:01:37.443Z,24.70
2022-08-30T18:04:06.175Z,24.80
2022-08-30T18:06:34.693Z,24.90
2022-08-30T18:09:04.281Z,25.00
2022-08-30T18:11:35.972Z,25.00
2022-08-30T18:14:03.974Z,25.00
2022-08-30T18:16:33.409Z,24.90
2022-08-30T18:19:03.943Z,24.90
2022-08-30T18:21:31.953Z,24.80
2022-08-30T18:24:00.314Z,24.80
2022-08-30T18:26:29.618Z,24.80
2022-08-30T18:28:57.631Z,24.80
2022-08-30T18:31:27.498Z,24.80
2022-08-30T18:33:58.887Z,24.90
2022-08-30T18:36:28.171Z,25.00
2022-08-30T18:38:56.128Z,25.10
2022-08-30T18:41:25.806Z,25.10
2022-08-30T18:44:17.155Z,25.00
2022-08-30T18:46:56.392Z,25.00
2022-08-30T18:49:24.926Z,24.90
2022-08-30T18:51:52.906Z,24.90
2022-08-30T18:54:21.132Z,24.80
2022-08-30T18:56:49.182Z,24.80
2022-08-30T18:59:18.678Z,24.80
2022-08-30T19:04:35.645Z,24.80
2022-08-30T19:07:04.916Z,24.70
2022-08-30T19:09:32.914Z,24.80
2022-08-30T19:12:00.964Z,24.70
2022-08-30T19:14:30.375Z,24.70
2022-08-30T19:17:02.013Z,24.70
2022-08-30T19:19:32.771Z,24.80
2022-08-30T19:22:03.097Z,24.80
2022-08-30T19:24:31.092Z,25.00
2022-08-30T19:27:00.365Z,25.10
2022-08-30T19:29:29.811Z,25.10
2022-08-30T19:31:58.834Z,25.10
2022-08-30T19:34:26.904Z,25.00
2022-08-30T19:36:55.985Z,25.00
2022-08-30T19:39:24.234Z,25.00
2022-08-30T19:41:52.483Z,24.90
2022-08-30T19:44:20.493Z,24.80
2022-08-30T19:46:51.917Z,24.80
2022-08-30T19:49:20.023Z,24.80
2022-08-30T19:51:49.652Z,24.80
2022-08-30T19:54:17.731Z,24.80
2022-08-30T19:56:45.794Z,24.80
2022-08-30T19:59:16.160Z,24.80
2022-08-30T20:01:45.710Z,24.90
2022-08-30T20:04:15.896Z,25.00
2022-08-30T20:06:44.877Z,25.10
2022-08-30T20:09:12.989Z,25.10
2022-08-30T20:11:42.241Z,25.00
2022-08-30T20:14:11.016Z,25.00
2022-08-30T20:16:41.742Z,24.90
2022-08-30T20:19:10.493Z,24.90
2022-08-30T20:21:39.855Z,24.90
2022-08-30T20:24:10.004Z,24.80
2022-08-30T20:24:30.034Z,24.80
2022-08-30T20:26:38.199Z,24.80
2022-08-30T20:29:07.270Z,24.80
2022-08-30T20:31:36.048Z,24.80
2022-08-30T20:34:04.463Z,24.70
2022-08-30T20:36:32.451Z,24.80
2022-08-30T20:39:02.142Z,24.80
2022-08-30T20:41:30.692Z,24.90
2022-08-30T20:43:59.673Z,25.00
2022-08-30T20:46:32.004Z,25.00
2022-08-30T20:49:03.273Z,25.00
2022-08-30T20:51:31.415Z,24.90
2022-08-30T20:54:04.197Z,24.90
2022-08-30T20:56:34.218Z,24.90
2022-08-30T20:59:03.514Z,24.80
2022-08-30T21:01:31.983Z,24.80
2022-08-30T21:04:00.032Z,24.80
2022-08-30T21:06:27.950Z,24.80
2022-08-30T21:08:55.913Z,24.90
2022-08-30T21:11:26.431Z,25.00
2022-08-30T21:13:54.446Z,25.10
2022-08-30T21:16:22.451Z,25.00
2022-08-30T21:18:50.442Z,25.00
2022-08-30T21:21:21.077Z,25.00
2022-08-30T21:23:49.352Z,24.90
2022-08-30T21:26:17.565Z,24.90
2022-08-30T21:28:48.596Z,24.80
2022-08-30T21:31:17.614Z,24.80
2022-08-30T21:33:45.633Z,24.80
2022-08-30T21:36:31.011Z,24.80
2022-08-30T21:39:00.755Z,24.80
2022-08-30T21:41:29.141Z,24.80
2022-08-30T21:43:58.764Z,24.70
2022-08-30T21:46:27.158Z,24.80
2022-08-30T21:48:55.296Z,24.90
2022-08-30T21:51:23.286Z,25.00
2022-08-30T21:53:51.298Z,25.10
2022-08-30T21:56:21.836Z,25.10
2022-08-30T21:58:50.260Z,25.00
2022-08-30T22:01:23.379Z,25.00
2022-08-30T22:03:51.666Z,25.00
2022-08-30T22:06:19.622Z,24.90
2022-08-30T22:08:49.027Z,24.90
2022-08-30T22:11:19.384Z,24.80
2022-08-30T22:13:48.070Z,24.80
2022-08-30T22:16:16.460Z,24.80
2022-08-30T22:18:45.853Z,24.80
2022-08-30T22:21:15.629Z,24.80
2022-08-30T22:23:43.634Z,24.80
2022-08-30T22:26:11.883Z,24.80
2022-08-30T22:28:40.047Z,24.80
2022-08-30T22:31:09.085Z,24.70
2022-08-30T22:33:37.174Z,24.70
2022-08-30T22:36:10.921Z,24.80
2022-08-30T22:38:38.964Z,24.90
2022-08-30T22:41:09.673Z,25.00
2022-08-30T22:43:37.778Z,25.20
2022-08-30T22:46:06.929Z,25.30
2022-08-30T22:48:35.686Z,25.20
2022-08-30T22:51:03.697Z,25.10
2022-08-30T22:53:33.082Z,25.10
2022-08-30T22:56:01.948Z,25.00
2022-08-30T22:58:29.893Z,25.00
2022-08-30T23:00:57.869Z,25.00
2022-08-30T23:03:28.742Z,24.90
2022-08-30T23:05:56.750Z,24.90
2022-08-30T23:08:24.664Z,24.90
2022-08-30T23:10:54.041Z,24.80
2022-08-30T23:13:22.338Z,24.80
2022-08-30T23:15:50.375Z,24.90
2022-08-30T23:18:18.318Z,25.00
2022-08-30T23:20:46.272Z,25.00
2022-08-30T23:23:31.548Z,25.10
2022-08-30T23:26:19.384Z,25.10
2022-08-30T23:29:04.719Z,25.00
2022-08-30T23:31:50.181Z,25.00
2022-08-30T23:34:35.594Z,24.90
2022-08-30T23:37:20.902Z,24.90
2022-08-30T23:40:06.533Z,24.80
2022-08-30T23:42:53.446Z,24.80
2022-08-30T23:45:38.914Z,24.80
2022-08-30T23:48:24.301Z,24.80
2022-08-30T23:51:09.862Z,24.80
2022-08-30T23:53:57.829Z,24.80
2022-08-30T23:56:43.358Z,24.80
2022-08-30T23:59:30.074Z,25.00
